sensor_id;sensor_type;location;lat;lon;timestamp;pressure;altitude;pressure_sealevel;temperature
49557;BMP280;35462;45.048;7.666;2022-07-04T00:08:00;98928.09;;;31.59
49557;BMP280;35462;45.048;7.666;2022-07-04T00:23:16;98924.31;;;31.48
49557;BMP280;35462;45.048;7.666;2022-07-04T00:38:32;98934.31;;;31.30
49557;BMP280;35462;45.048;7.666;2022-07-04T00:53:49;98929.56;;;31.16
49557;BMP280;35462;45.048;7.666;2022-07-04T01:09:06;98936.81;;;30.98
49557;BMP280;35462;45.048;7.666;2022-07-04T01:24:22;98940.28;;;30.92
49557;BMP280;35462;45.048;7.666;2022-07-04T01:39:38;98953.72;;;30.82
49557;BMP280;35462;45.048;7.666;2022-07-04T01:54:54;98994.53;;;30.73
49557;BMP280;35462;45.048;7.666;2022-07-04T02:10:10;98995.50;;;30.48
49557;BMP280;35462;45.048;7.666;2022-07-04T02:25:26;99022.94;;;30.27
49557;BMP280;35462;45.048;7.666;2022-07-04T02:40:43;99017.81;;;30.03
49557;BMP280;35462;45.048;7.666;2022-07-04T02:55:59;99020.75;;;29.85
49557;BMP280;35462;45.048;7.666;2022-07-04T03:11:19;99029.69;;;29.86
49557;BMP280;35462;45.048;7.666;2022-07-04T03:26:35;99015.09;;;29.83
49557;BMP280;35462;45.048;7.666;2022-07-04T03:41:51;99024.56;;;29.82
49557;BMP280;35462;45.048;7.666;2022-07-04T03:57:07;99025.16;;;29.68
49557;BMP280;35462;45.048;7.666;2022-07-04T04:12:22;99024.53;;;29.62
49557;BMP280;35462;45.048;7.666;2022-07-04T04:27:38;99025.50;;;29.64
49557;BMP280;35462;45.048;7.666;2022-07-04T04:42:54;99020.84;;;29.59
49557;BMP280;35462;45.048;7.666;2022-07-04T04:58:11;99022.41;;;29.68
49557;BMP280;35462;45.048;7.666;2022-07-04T05:13:26;99030.72;;;29.75
49557;BMP280;35462;45.048;7.666;2022-07-04T05:28:43;99026.78;;;29.84
49557;BMP280;35462;45.048;7.666;2022-07-04T05:44:02;99017.09;;;30.03
49557;BMP280;35462;45.048;7.666;2022-07-04T05:59:19;99042.81;;;30.98
49557;BMP280;35462;45.048;7.666;2022-07-04T06:14:36;99042.63;;;31.53
49557;BMP280;35462;45.048;7.666;2022-07-04T06:29:52;99036.38;;;34.00
49557;BMP280;35462;45.048;7.666;2022-07-04T06:45:09;98984.44;;;33.71
49557;BMP280;35462;45.048;7.666;2022-07-04T07:00:26;98977.28;;;34.78
49557;BMP280;35462;45.048;7.666;2022-07-04T07:15:42;98996.81;;;36.94
49557;BMP280;35462;45.048;7.666;2022-07-04T07:30:58;98992.28;;;37.29
49557;BMP280;35462;45.048;7.666;2022-07-04T07:46:14;98967.97;;;38.22
49557;BMP280;35462;45.048;7.666;2022-07-04T08:01:31;98957.59;;;40.21
49557;BMP280;35462;45.048;7.666;2022-07-04T08:16:48;98957.94;;;38.17
49557;BMP280;35462;45.048;7.666;2022-07-04T08:32:05;98962.22;;;37.97
49557;BMP280;35462;45.048;7.666;2022-07-04T08:47:24;98939.56;;;37.89
49557;BMP280;35462;45.048;7.666;2022-07-04T09:02:42;98954.34;;;37.82
49557;BMP280;35462;45.048;7.666;2022-07-04T09:17:59;98952.81;;;37.91
49557;BMP280;35462;45.048;7.666;2022-07-04T09:33:15;98951.59;;;36.90
49557;BMP280;35462;45.048;7.666;2022-07-04T09:48:49;98974.31;;;37.39
49557;BMP280;35462;45.048;7.666;2022-07-04T10:04:07;98990.53;;;37.54
49557;BMP280;35462;45.048;7.666;2022-07-04T10:19:24;98978.84;;;37.14
49557;BMP280;35462;45.048;7.666;2022-07-04T10:34:41;98977.13;;;36.60
49557;BMP280;35462;45.048;7.666;2022-07-04T10:49:57;98977.16;;;36.51
49557;BMP280;35462;45.048;7.666;2022-07-04T11:05:15;98970.97;;;36.03
49557;BMP280;35462;45.048;7.666;2022-07-04T11:20:33;98941.47;;;35.78
49557;BMP280;35462;45.048;7.666;2022-07-04T11:51:20;98933.59;;;34.91
49557;BMP280;35462;45.048;7.666;2022-07-04T12:06:37;98923.06;;;34.71
49557;BMP280;35462;45.048;7.666;2022-07-04T12:21:53;98867.66;;;34.93
49557;BMP280;35462;45.048;7.666;2022-07-04T12:37:13;98860.56;;;35.00
49557;BMP280;35462;45.048;7.666;2022-07-04T12:52:29;98869.06;;;34.85
49557;BMP280;35462;45.048;7.666;2022-07-04T13:07:46;98863.41;;;34.47
49557;BMP280;35462;45.048;7.666;2022-07-04T13:23:02;98846.28;;;34.85
49557;BMP280;35462;45.048;7.666;2022-07-04T13:38:18;98837.69;;;34.62
49557;BMP280;35462;45.048;7.666;2022-07-04T13:53:34;98837.50;;;34.60
49557;BMP280;35462;45.048;7.666;2022-07-04T14:08:52;98843.41;;;34.47
49557;BMP280;35462;45.048;7.666;2022-07-04T14:24:08;98864.81;;;33.79
49557;BMP280;35462;45.048;7.666;2022-07-04T14:39:25;98800.22;;;33.71
49557;BMP280;35462;45.048;7.666;2022-07-04T14:54:42;98824.69;;;33.59
49557;BMP280;35462;45.048;7.666;2022-07-04T15:09:58;98805.56;;;33.35
49557;BMP280;35462;45.048;7.666;2022-07-04T15:25:14;98827.22;;;32.66
49557;BMP280;35462;45.048;7.666;2022-07-04T15:40:31;98741.41;;;30.87
49557;BMP280;35462;45.048;7.666;2022-07-04T15:55:47;98785.56;;;30.91
49557;BMP280;35462;45.048;7.666;2022-07-04T16:11:03;98758.91;;;31.21
49557;BMP280;35462;45.048;7.666;2022-07-04T16:26:35;98789.91;;;31.23
49557;BMP280;35462;45.048;7.666;2022-07-04T16:41:53;98811.63;;;31.14
49557;BMP280;35462;45.048;7.666;2022-07-04T16:57:13;98819.50;;;31.02
49557;BMP280;35462;45.048;7.666;2022-07-04T17:12:41;98810.00;;;30.89
49557;BMP280;35462;45.048;7.666;2022-07-04T17:28:03;98793.34;;;30.72
49557;BMP280;35462;45.048;7.666;2022-07-04T17:43:19;98779.31;;;30.60
49557;BMP280;35462;45.048;7.666;2022-07-04T17:58:36;98771.63;;;30.59
49557;BMP280;35462;45.048;7.666;2022-07-04T18:13:53;98754.84;;;30.48
49557;BMP280;35462;45.048;7.666;2022-07-04T18:29:09;98752.66;;;30.46
49557;BMP280;35462;45.048;7.666;2022-07-04T18:44:25;98771.59;;;30.44
49557;BMP280;35462;45.048;7.666;2022-07-04T18:59:41;98792.19;;;30.38
49557;BMP280;35462;45.048;7.666;2022-07-04T19:14:57;98846.16;;;30.37
49557;BMP280;35462;45.048;7.666;2022-07-04T19:30:14;98847.19;;;30.27
49557;BMP280;35462;45.048;7.666;2022-07-04T19:45:30;98895.69;;;30.26
49557;BMP280;35462;45.048;7.666;2022-07-04T20:00:46;98913.28;;;30.10
49557;BMP280;35462;45.048;7.666;2022-07-04T20:16:02;98922.97;;;30.11
49557;BMP280;35462;45.048;7.666;2022-07-04T20:31:21;98964.63;;;30.04
49557;BMP280;35462;45.048;7.666;2022-07-04T20:46:37;98980.44;;;29.98
49557;BMP280;35462;45.048;7.666;2022-07-04T21:01:53;99001.69;;;29.93
49557;BMP280;35462;45.048;7.666;2022-07-04T21:17:09;99004.03;;;29.89
49557;BMP280;35462;45.048;7.666;2022-07-04T21:32:26;99009.63;;;29.83
49557;BMP280;35462;45.048;7.666;2022-07-04T21:47:42;99008.47;;;29.79
49557;BMP280;35462;45.048;7.666;2022-07-04T22:02:59;99007.69;;;29.71
49557;BMP280;35462;45.048;7.666;2022-07-04T22:18:15;98993.97;;;29.63
49557;BMP280;35462;45.048;7.666;2022-07-04T22:33:31;98971.03;;;29.46
49557;BMP280;35462;45.048;7.666;2022-07-04T22:48:46;98987.88;;;29.37
49557;BMP280;35462;45.048;7.666;2022-07-04T23:04:05;98998.59;;;29.35
49557;BMP280;35462;45.048;7.666;2022-07-04T23:19:21;98957.59;;;29.15
49557;BMP280;35462;45.048;7.666;2022-07-04T23:34:36;98961.94;;;29.10
49557;BMP280;35462;45.048;7.666;2022-07-04T23:49:52;98944.53;;;29.00
